map of NNG home
NNG - Airport
Location
City:  Nanning, Guangxi, China
Name:Wuxu International Airport
ICAO:ZGNN
IATA:NNG

Details
Type:Airport (Aerodrome, Airfield)
Use:Public/Civil, International (customs port of entry)
Latitude:22°37'N (22.610)
Longitude:108°10'E (108.173)
Elevation:420 ft (128 m)
Variation:2.00°W (WMM2015 magnetic declination)
-0.04° annual change
Runways:1
Longest:10499 × 148 ft (3200 × 45 m), paved

Time
Time Zone:UTC+8
Local Time:

Weather
METAR:ZGNN 162200Z 35003MPS 320V020 9999 BKN033 09/06 Q1025 NOSIG
TAF:ZGNN 161908Z 1700/1724 01003MPS 6000 FEW013 BKN030 TX14/1707Z TN08/1722Z

Related Locations
Nearby:
Farthest:ANF: 12336 mi / 19853 km
Antofagasta [Andrés Sabella Intl (Cerro Moreno Intl)], AN, CL

Find:

   beyond  
but within

Other Information
Maps:
NOTAMs:
Links:
Sources:

  
  • flag of China
  

Sectional Chart

Flight Planning
at skyvector.com

Satellite Image

Google Maps Satellite view

 

Copyright © 2004-2019 Karl L. Swartz. All rights reserved.
The Great Circle Mapper name and logo are trademarks of the Great Circle Mapper.
All other trademarks mentioned herein belong to their respective owners.
Please see credits for attibutions and further copyright information.

  Follow gcmap on Facebook Follow gcmap on Twitter Follow gcmap on Google+ GCmap on LinkedIn

hCard Microformat

Geo Microformat